sensor_id;sensor_type;location;lat;lon;timestamp;P1;durP1;ratioP1;P2;durP2;ratioP2
3253;SDS011;1639;42.804;23.342;2024-03-07T00:00:34;24.53;;;15.90;;
3253;SDS011;1639;42.804;23.342;2024-03-07T00:03:00;21.20;;;16.10;;
3253;SDS011;1639;42.804;23.342;2024-03-07T00:05:26;23.07;;;16.07;;
3253;SDS011;1639;42.804;23.342;2024-03-07T00:07:52;29.37;;;18.57;;
3253;SDS011;1639;42.804;23.342;2024-03-07T00:10:18;26.73;;;19.47;;
3253;SDS011;1639;42.804;23.342;2024-03-07T00:12:43;29.00;;;19.60;;
3253;SDS011;1639;42.804;23.342;2024-03-07T00:15:10;23.37;;;18.00;;
3253;SDS011;1639;42.804;23.342;2024-03-07T00:17:36;27.83;;;18.67;;
3253;SDS011;1639;42.804;23.342;2024-03-07T00:20:02;26.37;;;17.13;;
3253;SDS011;1639;42.804;23.342;2024-03-07T00:22:30;25.13;;;17.43;;
3253;SDS011;1639;42.804;23.342;2024-03-07T00:24:56;27.33;;;17.00;;
3253;SDS011;1639;42.804;23.342;2024-03-07T00:27:22;19.70;;;16.37;;
3253;SDS011;1639;42.804;23.342;2024-03-07T00:29:48;23.97;;;17.40;;
3253;SDS011;1639;42.804;23.342;2024-03-07T00:32:19;21.03;;;15.77;;
3253;SDS011;1639;42.804;23.342;2024-03-07T00:34:45;20.43;;;15.70;;
3253;SDS011;1639;42.804;23.342;2024-03-07T00:37:10;21.53;;;16.10;;
3253;SDS011;1639;42.804;23.342;2024-03-07T00:39:36;17.27;;;13.00;;
3253;SDS011;1639;42.804;23.342;2024-03-07T00:42:01;21.97;;;15.47;;
3253;SDS011;1639;42.804;23.342;2024-03-07T00:44:27;23.80;;;12.70;;
3253;SDS011;1639;42.804;23.342;2024-03-07T00:46:52;23.43;;;14.33;;
3253;SDS011;1639;42.804;23.342;2024-03-07T00:49:18;16.43;;;12.07;;
3253;SDS011;1639;42.804;23.342;2024-03-07T00:51:43;13.73;;;11.13;;
3253;SDS011;1639;42.804;23.342;2024-03-07T00:54:09;22.93;;;11.93;;
3253;SDS011;1639;42.804;23.342;2024-03-07T00:56:37;14.37;;;10.87;;
3253;SDS011;1639;42.804;23.342;2024-03-07T00:59:03;18.70;;;12.60;;
3253;SDS011;1639;42.804;23.342;2024-03-07T01:01:28;23.20;;;14.20;;
3253;SDS011;1639;42.804;23.342;2024-03-07T01:03:54;18.20;;;8.40;;
3253;SDS011;1639;42.804;23.342;2024-03-07T01:06:19;16.37;;;9.10;;
3253;SDS011;1639;42.804;23.342;2024-03-07T01:08:45;16.97;;;11.97;;
3253;SDS011;1639;42.804;23.342;2024-03-07T01:11:11;14.20;;;11.70;;
3253;SDS011;1639;42.804;23.342;2024-03-07T01:13:40;13.30;;;10.60;;
3253;SDS011;1639;42.804;23.342;2024-03-07T01:16:06;14.37;;;8.53;;
3253;SDS011;1639;42.804;23.342;2024-03-07T01:18:32;15.83;;;11.40;;
3253;SDS011;1639;42.804;23.342;2024-03-07T01:21:00;23.47;;;13.53;;
3253;SDS011;1639;42.804;23.342;2024-03-07T01:23:26;21.10;;;10.50;;
3253;SDS011;1639;42.804;23.342;2024-03-07T01:25:55;14.90;;;10.47;;
3253;SDS011;1639;42.804;23.342;2024-03-07T01:28:24;18.83;;;12.53;;
3253;SDS011;1639;42.804;23.342;2024-03-07T01:30:50;16.87;;;10.20;;
3253;SDS011;1639;42.804;23.342;2024-03-07T01:33:17;16.43;;;11.00;;
3253;SDS011;1639;42.804;23.342;2024-03-07T01:35:43;19.60;;;10.17;;
3253;SDS011;1639;42.804;23.342;2024-03-07T01:38:08;13.10;;;10.40;;
3253;SDS011;1639;42.804;23.342;2024-03-07T01:40:35;18.40;;;10.47;;
3253;SDS011;1639;42.804;23.342;2024-03-07T01:43:01;21.23;;;10.73;;
3253;SDS011;1639;42.804;23.342;2024-03-07T01:45:27;17.07;;;11.63;;
3253;SDS011;1639;42.804;23.342;2024-03-07T01:47:53;16.17;;;9.17;;
3253;SDS011;1639;42.804;23.342;2024-03-07T01:50:18;15.20;;;11.20;;
3253;SDS011;1639;42.804;23.342;2024-03-07T01:52:44;20.57;;;12.60;;
3253;SDS011;1639;42.804;23.342;2024-03-07T01:55:09;12.90;;;9.77;;
3253;SDS011;1639;42.804;23.342;2024-03-07T01:57:38;15.77;;;6.77;;
3253;SDS011;1639;42.804;23.342;2024-03-07T02:00:04;18.77;;;12.87;;
3253;SDS011;1639;42.804;23.342;2024-03-07T02:02:31;13.80;;;8.70;;
3253;SDS011;1639;42.804;23.342;2024-03-07T02:04:57;18.43;;;12.23;;
3253;SDS011;1639;42.804;23.342;2024-03-07T02:07:23;20.80;;;11.50;;
3253;SDS011;1639;42.804;23.342;2024-03-07T02:09:48;14.73;;;9.03;;
3253;SDS011;1639;42.804;23.342;2024-03-07T02:12:14;18.40;;;12.30;;
3253;SDS011;1639;42.804;23.342;2024-03-07T02:14:39;17.73;;;11.57;;
3253;SDS011;1639;42.804;23.342;2024-03-07T02:17:05;26.63;;;10.93;;
3253;SDS011;1639;42.804;23.342;2024-03-07T02:19:31;19.20;;;12.50;;
3253;SDS011;1639;42.804;23.342;2024-03-07T02:21:57;13.93;;;10.53;;
3253;SDS011;1639;42.804;23.342;2024-03-07T02:24:22;11.60;;;9.20;;
3253;SDS011;1639;42.804;23.342;2024-03-07T02:26:48;24.90;;;11.67;;
3253;SDS011;1639;42.804;23.342;2024-03-07T02:29:14;13.83;;;9.60;;
3253;SDS011;1639;42.804;23.342;2024-03-07T02:31:39;19.93;;;11.93;;
3253;SDS011;1639;42.804;23.342;2024-03-07T02:34:06;14.73;;;9.20;;
3253;SDS011;1639;42.804;23.342;2024-03-07T02:36:35;15.00;;;12.43;;
3253;SDS011;1639;42.804;23.342;2024-03-07T02:39:00;16.93;;;12.83;;
3253;SDS011;1639;42.804;23.342;2024-03-07T02:41:25;21.57;;;13.13;;
3253;SDS011;1639;42.804;23.342;2024-03-07T02:43:51;19.40;;;12.90;;
3253;SDS011;1639;42.804;23.342;2024-03-07T02:46:18;15.47;;;9.47;;
3253;SDS011;1639;42.804;23.342;2024-03-07T02:48:43;17.13;;;11.27;;
3253;SDS011;1639;42.804;23.342;2024-03-07T02:51:09;17.57;;;12.20;;
3253;SDS011;1639;42.804;23.342;2024-03-07T02:53:34;18.03;;;11.80;;
3253;SDS011;1639;42.804;23.342;2024-03-07T02:55:59;15.80;;;12.93;;
3253;SDS011;1639;42.804;23.342;2024-03-07T02:58:25;15.57;;;10.90;;
3253;SDS011;1639;42.804;23.342;2024-03-07T03:00:58;13.07;;;9.20;;
3253;SDS011;1639;42.804;23.342;2024-03-07T03:03:25;35.30;;;13.90;;
3253;SDS011;1639;42.804;23.342;2024-03-07T03:05:56;14.20;;;9.10;;
3253;SDS011;1639;42.804;23.342;2024-03-07T03:08:22;18.53;;;11.67;;
3253;SDS011;1639;42.804;23.342;2024-03-07T03:10:49;14.67;;;11.77;;
3253;SDS011;1639;42.804;23.342;2024-03-07T03:13:16;13.27;;;9.17;;
3253;SDS011;1639;42.804;23.342;2024-03-07T03:15:42;15.77;;;12.07;;
3253;SDS011;1639;42.804;23.342;2024-03-07T03:18:07;18.43;;;10.77;;
3253;SDS011;1639;42.804;23.342;2024-03-07T03:20:34;11.37;;;8.87;;
3253;SDS011;1639;42.804;23.342;2024-03-07T03:23:03;17.63;;;10.33;;
3253;SDS011;1639;42.804;23.342;2024-03-07T03:25:29;15.20;;;8.97;;
3253;SDS011;1639;42.804;23.342;2024-03-07T03:27:55;10.93;;;7.23;;
3253;SDS011;1639;42.804;23.342;2024-03-07T03:30:20;13.93;;;5.90;;
3253;SDS011;1639;42.804;23.342;2024-03-07T03:32:47;23.37;;;6.70;;
3253;SDS011;1639;42.804;23.342;2024-03-07T03:35:16;18.03;;;6.37;;
3253;SDS011;1639;42.804;23.342;2024-03-07T03:37:42;10.20;;;6.40;;
3253;SDS011;1639;42.804;23.342;2024-03-07T03:40:08;8.40;;;4.90;;
3253;SDS011;1639;42.804;23.342;2024-03-07T03:42:35;10.27;;;5.00;;
3253;SDS011;1639;42.804;23.342;2024-03-07T03:45:01;9.10;;;4.87;;
3253;SDS011;1639;42.804;23.342;2024-03-07T03:47:32;7.40;;;4.30;;
3253;SDS011;1639;42.804;23.342;2024-03-07T03:50:00;8.77;;;3.50;;
3253;SDS011;1639;42.804;23.342;2024-03-07T03:52:26;6.87;;;2.83;;
3253;SDS011;1639;42.804;23.342;2024-03-07T03:54:51;6.70;;;3.87;;
3253;SDS011;1639;42.804;23.342;2024-03-07T03:57:16;10.00;;;3.87;;
3253;SDS011;1639;42.804;23.342;2024-03-07T03:59:43;6.33;;;2.80;;
3253;SDS011;1639;42.804;23.342;2024-03-07T04:02:09;6.03;;;3.30;;
3253;SDS011;1639;42.804;23.342;2024-03-07T04:04:38;10.80;;;3.50;;
3253;SDS011;1639;42.804;23.342;2024-03-07T04:07:04;5.97;;;3.00;;
3253;SDS011;1639;42.804;23.342;2024-03-07T04:09:30;6.70;;;2.67;;
3253;SDS011;1639;42.804;23.342;2024-03-07T04:11:56;7.40;;;3.33;;
3253;SDS011;1639;42.804;23.342;2024-03-07T04:14:22;6.20;;;3.13;;
3253;SDS011;1639;42.804;23.342;2024-03-07T04:16:48;7.20;;;3.50;;
3253;SDS011;1639;42.804;23.342;2024-03-07T04:19:13;7.23;;;3.00;;
3253;SDS011;1639;42.804;23.342;2024-03-07T04:21:38;6.00;;;2.77;;
3253;SDS011;1639;42.804;23.342;2024-03-07T04:24:04;6.13;;;2.80;;
3253;SDS011;1639;42.804;23.342;2024-03-07T04:26:30;6.00;;;2.90;;
3253;SDS011;1639;42.804;23.342;2024-03-07T04:28:55;6.23;;;3.63;;
3253;SDS011;1639;42.804;23.342;2024-03-07T04:31:21;7.00;;;2.70;;
3253;SDS011;1639;42.804;23.342;2024-03-07T04:33:47;6.93;;;3.93;;
3253;SDS011;1639;42.804;23.342;2024-03-07T04:36:12;13.67;;;3.70;;
3253;SDS011;1639;42.804;23.342;2024-03-07T04:38:37;8.90;;;4.30;;
3253;SDS011;1639;42.804;23.342;2024-03-07T04:41:03;11.30;;;4.73;;
3253;SDS011;1639;42.804;23.342;2024-03-07T04:43:29;6.70;;;3.57;;
3253;SDS011;1639;42.804;23.342;2024-03-07T04:45:54;8.60;;;5.37;;
3253;SDS011;1639;42.804;23.342;2024-03-07T04:48:20;7.13;;;4.10;;
3253;SDS011;1639;42.804;23.342;2024-03-07T04:50:46;10.90;;;6.03;;
3253;SDS011;1639;42.804;23.342;2024-03-07T04:53:11;12.43;;;4.50;;
3253;SDS011;1639;42.804;23.342;2024-03-07T04:55:37;7.50;;;4.00;;
3253;SDS011;1639;42.804;23.342;2024-03-07T04:58:02;10.03;;;3.63;;
3253;SDS011;1639;42.804;23.342;2024-03-07T05:00:28;6.90;;;3.40;;
3253;SDS011;1639;42.804;23.342;2024-03-07T05:02:55;6.03;;;3.10;;
3253;SDS011;1639;42.804;23.342;2024-03-07T05:05:21;6.93;;;3.37;;
3253;SDS011;1639;42.804;23.342;2024-03-07T05:07:48;6.90;;;3.90;;
3253;SDS011;1639;42.804;23.342;2024-03-07T05:10:15;5.87;;;2.70;;
3253;SDS011;1639;42.804;23.342;2024-03-07T05:12:40;12.40;;;5.00;;
3253;SDS011;1639;42.804;23.342;2024-03-07T05:15:06;10.23;;;3.80;;
3253;SDS011;1639;42.804;23.342;2024-03-07T05:17:34;6.60;;;3.40;;
3253;SDS011;1639;42.804;23.342;2024-03-07T05:20:02;7.67;;;4.00;;
3253;SDS011;1639;42.804;23.342;2024-03-07T05:22:32;9.33;;;3.50;;
3253;SDS011;1639;42.804;23.342;2024-03-07T05:24:57;7.70;;;2.60;;
3253;SDS011;1639;42.804;23.342;2024-03-07T05:27:23;7.90;;;3.37;;
3253;SDS011;1639;42.804;23.342;2024-03-07T05:29:49;6.43;;;3.37;;
3253;SDS011;1639;42.804;23.342;2024-03-07T05:32:26;6.93;;;2.80;;
3253;SDS011;1639;42.804;23.342;2024-03-07T05:34:52;7.30;;;3.20;;
3253;SDS011;1639;42.804;23.342;2024-03-07T05:37:18;6.70;;;3.00;;
3253;SDS011;1639;42.804;23.342;2024-03-07T05:39:50;6.40;;;2.63;;
3253;SDS011;1639;42.804;23.342;2024-03-07T05:42:16;6.03;;;2.63;;
3253;SDS011;1639;42.804;23.342;2024-03-07T05:44:42;6.17;;;3.07;;
3253;SDS011;1639;42.804;23.342;2024-03-07T05:47:07;11.47;;;8.27;;
3253;SDS011;1639;42.804;23.342;2024-03-07T05:49:34;7.30;;;3.23;;
3253;SDS011;1639;42.804;23.342;2024-03-07T05:52:00;6.00;;;2.90;;
3253;SDS011;1639;42.804;23.342;2024-03-07T05:54:25;7.93;;;3.47;;
3253;SDS011;1639;42.804;23.342;2024-03-07T05:56:50;12.80;;;7.63;;
3253;SDS011;1639;42.804;23.342;2024-03-07T05:59:16;9.87;;;5.23;;
3253;SDS011;1639;42.804;23.342;2024-03-07T06:01:42;12.93;;;5.47;;
3253;SDS011;1639;42.804;23.342;2024-03-07T06:04:07;6.70;;;3.63;;
3253;SDS011;1639;42.804;23.342;2024-03-07T06:06:35;7.20;;;3.30;;
3253;SDS011;1639;42.804;23.342;2024-03-07T06:09:02;6.50;;;3.10;;
3253;SDS011;1639;42.804;23.342;2024-03-07T06:11:41;6.40;;;2.30;;
3253;SDS011;1639;42.804;23.342;2024-03-07T06:14:10;5.80;;;2.20;;
3253;SDS011;1639;42.804;23.342;2024-03-07T06:16:38;6.80;;;2.30;;
3253;SDS011;1639;42.804;23.342;2024-03-07T06:19:05;7.23;;;2.47;;
3253;SDS011;1639;42.804;23.342;2024-03-07T06:21:35;6.90;;;2.73;;
3253;SDS011;1639;42.804;23.342;2024-03-07T06:24:01;6.90;;;3.20;;
3253;SDS011;1639;42.804;23.342;2024-03-07T06:29:12;10.90;;;4.47;;
3253;SDS011;1639;42.804;23.342;2024-03-07T06:31:38;7.10;;;3.30;;
3253;SDS011;1639;42.804;23.342;2024-03-07T06:34:03;7.80;;;4.37;;
3253;SDS011;1639;42.804;23.342;2024-03-07T06:36:29;19.63;;;4.60;;
3253;SDS011;1639;42.804;23.342;2024-03-07T06:38:54;6.43;;;3.07;;
3253;SDS011;1639;42.804;23.342;2024-03-07T06:41:20;8.77;;;3.33;;
3253;SDS011;1639;42.804;23.342;2024-03-07T06:43:45;5.97;;;3.00;;
3253;SDS011;1639;42.804;23.342;2024-03-07T06:46:11;8.83;;;3.70;;
3253;SDS011;1639;42.804;23.342;2024-03-07T06:48:37;10.20;;;3.13;;
3253;SDS011;1639;42.804;23.342;2024-03-07T06:51:05;6.73;;;3.43;;
3253;SDS011;1639;42.804;23.342;2024-03-07T06:53:30;6.33;;;2.97;;
3253;SDS011;1639;42.804;23.342;2024-03-07T06:55:56;9.73;;;3.30;;
3253;SDS011;1639;42.804;23.342;2024-03-07T06:58:21;5.80;;;2.70;;
3253;SDS011;1639;42.804;23.342;2024-03-07T07:00:47;7.13;;;3.83;;
3253;SDS011;1639;42.804;23.342;2024-03-07T07:03:16;10.10;;;2.97;;
3253;SDS011;1639;42.804;23.342;2024-03-07T07:05:42;7.97;;;2.90;;
3253;SDS011;1639;42.804;23.342;2024-03-07T07:08:07;7.00;;;3.80;;
3253;SDS011;1639;42.804;23.342;2024-03-07T07:10:33;9.43;;;3.80;;
3253;SDS011;1639;42.804;23.342;2024-03-07T07:13:00;6.53;;;2.80;;
3253;SDS011;1639;42.804;23.342;2024-03-07T07:15:26;6.70;;;3.03;;
3253;SDS011;1639;42.804;23.342;2024-03-07T07:17:51;6.67;;;3.00;;
3253;SDS011;1639;42.804;23.342;2024-03-07T07:20:17;5.87;;;2.47;;
3253;SDS011;1639;42.804;23.342;2024-03-07T07:22:44;5.70;;;2.50;;
3253;SDS011;1639;42.804;23.342;2024-03-07T07:25:14;7.13;;;2.90;;
3253;SDS011;1639;42.804;23.342;2024-03-07T07:27:44;7.40;;;2.80;;
3253;SDS011;1639;42.804;23.342;2024-03-07T07:30:12;6.03;;;2.97;;
3253;SDS011;1639;42.804;23.342;2024-03-07T07:32:39;7.43;;;3.47;;
3253;SDS011;1639;42.804;23.342;2024-03-07T07:35:06;5.67;;;2.83;;
3253;SDS011;1639;42.804;23.342;2024-03-07T07:37:36;8.67;;;3.10;;
3253;SDS011;1639;42.804;23.342;2024-03-07T07:40:06;6.47;;;3.37;;
3253;SDS011;1639;42.804;23.342;2024-03-07T07:42:34;7.80;;;3.47;;
3253;SDS011;1639;42.804;23.342;2024-03-07T07:45:05;6.83;;;2.30;;
3253;SDS011;1639;42.804;23.342;2024-03-07T07:47:37;18.03;;;8.00;;
3253;SDS011;1639;42.804;23.342;2024-03-07T07:52:42;7.40;;;4.70;;
3253;SDS011;1639;42.804;23.342;2024-03-07T07:55:09;6.83;;;2.40;;
3253;SDS011;1639;42.804;23.342;2024-03-07T07:57:58;6.83;;;3.40;;
3253;SDS011;1639;42.804;23.342;2024-03-07T08:00:25;5.20;;;1.73;;
3253;SDS011;1639;42.804;23.342;2024-03-07T08:07:56;5.70;;;2.13;;
3253;SDS011;1639;42.804;23.342;2024-03-07T08:10:23;5.60;;;2.20;;
3253;SDS011;1639;42.804;23.342;2024-03-07T08:12:50;5.30;;;1.70;;
3253;SDS011;1639;42.804;23.342;2024-03-07T08:15:16;5.60;;;2.23;;
3253;SDS011;1639;42.804;23.342;2024-03-07T08:17:42;5.57;;;2.00;;
3253;SDS011;1639;42.804;23.342;2024-03-07T08:20:12;7.43;;;2.13;;
3253;SDS011;1639;42.804;23.342;2024-03-07T08:22:39;5.40;;;1.93;;
3253;SDS011;1639;42.804;23.342;2024-03-07T08:25:09;5.57;;;2.43;;
3253;SDS011;1639;42.804;23.342;2024-03-07T08:27:36;17.17;;;6.00;;
3253;SDS011;1639;42.804;23.342;2024-03-07T08:30:02;6.57;;;2.80;;
3253;SDS011;1639;42.804;23.342;2024-03-07T08:32:31;14.00;;;7.27;;
3253;SDS011;1639;42.804;23.342;2024-03-07T08:34:59;8.60;;;3.20;;
3253;SDS011;1639;42.804;23.342;2024-03-07T08:37:26;5.60;;;2.47;;
3253;SDS011;1639;42.804;23.342;2024-03-07T08:39:51;5.90;;;2.30;;
3253;SDS011;1639;42.804;23.342;2024-03-07T08:42:17;5.93;;;2.57;;
3253;SDS011;1639;42.804;23.342;2024-03-07T08:44:42;5.90;;;2.83;;
3253;SDS011;1639;42.804;23.342;2024-03-07T08:47:08;6.87;;;2.47;;
3253;SDS011;1639;42.804;23.342;2024-03-07T08:49:34;5.60;;;2.40;;
3253;SDS011;1639;42.804;23.342;2024-03-07T08:52:00;5.70;;;2.30;;
3253;SDS011;1639;42.804;23.342;2024-03-07T08:54:26;6.33;;;3.03;;
3253;SDS011;1639;42.804;23.342;2024-03-07T08:56:51;18.33;;;7.10;;
3253;SDS011;1639;42.804;23.342;2024-03-07T08:59:17;28.20;;;9.30;;
3253;SDS011;1639;42.804;23.342;2024-03-07T09:01:43;14.03;;;5.80;;
3253;SDS011;1639;42.804;23.342;2024-03-07T09:04:08;5.50;;;2.00;;
3253;SDS011;1639;42.804;23.342;2024-03-07T09:06:34;12.67;;;9.47;;
3253;SDS011;1639;42.804;23.342;2024-03-07T09:09:00;8.87;;;3.43;;
3253;SDS011;1639;42.804;23.342;2024-03-07T09:11:25;6.53;;;3.37;;
3253;SDS011;1639;42.804;23.342;2024-03-07T09:13:50;16.57;;;6.60;;
3253;SDS011;1639;42.804;23.342;2024-03-07T09:16:16;6.00;;;2.80;;
3253;SDS011;1639;42.804;23.342;2024-03-07T09:18:41;5.70;;;2.50;;
3253;SDS011;1639;42.804;23.342;2024-03-07T09:21:07;5.30;;;2.17;;
3253;SDS011;1639;42.804;23.342;2024-03-07T09:23:32;6.40;;;3.10;;
3253;SDS011;1639;42.804;23.342;2024-03-07T09:25:58;6.67;;;3.07;;
3253;SDS011;1639;42.804;23.342;2024-03-07T09:28:24;7.17;;;3.10;;
3253;SDS011;1639;42.804;23.342;2024-03-07T09:30:49;5.77;;;2.70;;
3253;SDS011;1639;42.804;23.342;2024-03-07T09:33:16;8.50;;;3.33;;
3253;SDS011;1639;42.804;23.342;2024-03-07T09:35:44;7.73;;;4.10;;
3253;SDS011;1639;42.804;23.342;2024-03-07T09:38:10;6.00;;;2.63;;
3253;SDS011;1639;42.804;23.342;2024-03-07T09:40:36;5.67;;;2.57;;
3253;SDS011;1639;42.804;23.342;2024-03-07T09:43:02;6.80;;;3.40;;
3253;SDS011;1639;42.804;23.342;2024-03-07T09:45:29;5.80;;;2.90;;
3253;SDS011;1639;42.804;23.342;2024-03-07T09:47:58;8.67;;;3.47;;
3253;SDS011;1639;42.804;23.342;2024-03-07T09:50:24;7.23;;;3.10;;
3253;SDS011;1639;42.804;23.342;2024-03-07T09:52:53;6.90;;;2.60;;
3253;SDS011;1639;42.804;23.342;2024-03-07T09:55:18;6.10;;;3.20;;
3253;SDS011;1639;42.804;23.342;2024-03-07T09:57:49;8.10;;;4.47;;
3253;SDS011;1639;42.804;23.342;2024-03-07T10:00:18;9.50;;;4.10;;
3253;SDS011;1639;42.804;23.342;2024-03-07T10:02:54;5.37;;;2.17;;
3253;SDS011;1639;42.804;23.342;2024-03-07T10:05:22;7.47;;;2.90;;
3253;SDS011;1639;42.804;23.342;2024-03-07T10:07:50;6.90;;;4.33;;
3253;SDS011;1639;42.804;23.342;2024-03-07T10:10:17;7.07;;;3.47;;
3253;SDS011;1639;42.804;23.342;2024-03-07T10:12:43;5.70;;;2.80;;
3253;SDS011;1639;42.804;23.342;2024-03-07T10:15:08;6.53;;;3.50;;
3253;SDS011;1639;42.804;23.342;2024-03-07T10:17:38;11.33;;;4.53;;
3253;SDS011;1639;42.804;23.342;2024-03-07T10:20:04;8.80;;;4.80;;
3253;SDS011;1639;42.804;23.342;2024-03-07T10:22:34;8.10;;;4.00;;
3253;SDS011;1639;42.804;23.342;2024-03-07T10:25:02;6.93;;;3.80;;
3253;SDS011;1639;42.804;23.342;2024-03-07T10:27:28;8.67;;;4.60;;
3253;SDS011;1639;42.804;23.342;2024-03-07T10:29:54;5.90;;;2.70;;
3253;SDS011;1639;42.804;23.342;2024-03-07T10:32:22;9.60;;;3.80;;
3253;SDS011;1639;42.804;23.342;2024-03-07T10:34:51;6.60;;;3.90;;
3253;SDS011;1639;42.804;23.342;2024-03-07T10:37:17;7.70;;;3.97;;
3253;SDS011;1639;42.804;23.342;2024-03-07T10:39:48;9.43;;;5.10;;
3253;SDS011;1639;42.804;23.342;2024-03-07T10:42:18;10.40;;;6.80;;
3253;SDS011;1639;42.804;23.342;2024-03-07T10:44:45;6.10;;;3.50;;
3253;SDS011;1639;42.804;23.342;2024-03-07T10:47:19;7.93;;;5.30;;
3253;SDS011;1639;42.804;23.342;2024-03-07T10:55:30;11.33;;;6.50;;
3253;SDS011;1639;42.804;23.342;2024-03-07T10:58:27;7.97;;;5.60;;
3253;SDS011;1639;42.804;23.342;2024-03-07T11:01:05;11.53;;;8.83;;
3253;SDS011;1639;42.804;23.342;2024-03-07T11:03:33;11.30;;;5.60;;
3253;SDS011;1639;42.804;23.342;2024-03-07T11:06:00;7.83;;;4.80;;
3253;SDS011;1639;42.804;23.342;2024-03-07T11:08:31;11.40;;;5.40;;
3253;SDS011;1639;42.804;23.342;2024-03-07T11:10:57;5.87;;;3.17;;
3253;SDS011;1639;42.804;23.342;2024-03-07T11:13:23;9.00;;;3.90;;
3253;SDS011;1639;42.804;23.342;2024-03-07T11:15:49;10.33;;;6.13;;
3253;SDS011;1639;42.804;23.342;2024-03-07T11:18:16;7.00;;;4.10;;
3253;SDS011;1639;42.804;23.342;2024-03-07T11:20:42;7.53;;;4.20;;
3253;SDS011;1639;42.804;23.342;2024-03-07T11:28:36;7.60;;;3.90;;
3253;SDS011;1639;42.804;23.342;2024-03-07T11:31:12;9.10;;;6.17;;
3253;SDS011;1639;42.804;23.342;2024-03-07T11:33:39;8.93;;;3.97;;
3253;SDS011;1639;42.804;23.342;2024-03-07T11:36:42;7.17;;;5.30;;
3253;SDS011;1639;42.804;23.342;2024-03-07T11:42:09;10.20;;;6.30;;
3253;SDS011;1639;42.804;23.342;2024-03-07T11:44:34;11.33;;;4.70;;
3253;SDS011;1639;42.804;23.342;2024-03-07T11:47:01;7.07;;;3.00;;
3253;SDS011;1639;42.804;23.342;2024-03-07T11:49:34;8.00;;;3.97;;
3253;SDS011;1639;42.804;23.342;2024-03-07T11:52:03;7.13;;;4.37;;
3253;SDS011;1639;42.804;23.342;2024-03-07T11:54:30;10.03;;;4.83;;
3253;SDS011;1639;42.804;23.342;2024-03-07T11:56:56;7.90;;;4.00;;
3253;SDS011;1639;42.804;23.342;2024-03-07T11:59:22;10.80;;;8.30;;
3253;SDS011;1639;42.804;23.342;2024-03-07T12:01:51;6.97;;;3.10;;
3253;SDS011;1639;42.804;23.342;2024-03-07T12:04:16;8.00;;;4.47;;
3253;SDS011;1639;42.804;23.342;2024-03-07T12:06:50;10.67;;;3.37;;
3253;SDS011;1639;42.804;23.342;2024-03-07T12:09:16;6.40;;;3.23;;
3253;SDS011;1639;42.804;23.342;2024-03-07T12:11:49;6.60;;;3.50;;
3253;SDS011;1639;42.804;23.342;2024-03-07T12:14:21;9.33;;;4.23;;
3253;SDS011;1639;42.804;23.342;2024-03-07T12:16:46;7.53;;;5.00;;
3253;SDS011;1639;42.804;23.342;2024-03-07T12:19:12;6.47;;;4.00;;
3253;SDS011;1639;42.804;23.342;2024-03-07T12:21:42;8.80;;;5.40;;
3253;SDS011;1639;42.804;23.342;2024-03-07T12:24:12;7.67;;;3.83;;
3253;SDS011;1639;42.804;23.342;2024-03-07T12:26:38;5.63;;;2.63;;
3253;SDS011;1639;42.804;23.342;2024-03-07T12:29:07;5.83;;;2.83;;
3253;SDS011;1639;42.804;23.342;2024-03-07T12:31:36;9.43;;;4.50;;
3253;SDS011;1639;42.804;23.342;2024-03-07T12:34:02;7.53;;;3.83;;
3253;SDS011;1639;42.804;23.342;2024-03-07T12:36:29;7.73;;;3.40;;
3253;SDS011;1639;42.804;23.342;2024-03-07T12:39:25;5.70;;;2.57;;
3253;SDS011;1639;42.804;23.342;2024-03-07T12:41:53;6.47;;;3.30;;
3253;SDS011;1639;42.804;23.342;2024-03-07T12:44:21;7.77;;;3.80;;
3253;SDS011;1639;42.804;23.342;2024-03-07T12:46:50;10.07;;;3.80;;
3253;SDS011;1639;42.804;23.342;2024-03-07T12:49:20;8.27;;;4.30;;
3253;SDS011;1639;42.804;23.342;2024-03-07T12:51:53;6.80;;;2.90;;
3253;SDS011;1639;42.804;23.342;2024-03-07T12:54:19;7.20;;;3.67;;
3253;SDS011;1639;42.804;23.342;2024-03-07T12:56:44;10.27;;;4.80;;
3253;SDS011;1639;42.804;23.342;2024-03-07T12:59:09;22.93;;;9.07;;
3253;SDS011;1639;42.804;23.342;2024-03-07T13:01:35;21.83;;;11.50;;
3253;SDS011;1639;42.804;23.342;2024-03-07T13:04:04;7.73;;;5.07;;
3253;SDS011;1639;42.804;23.342;2024-03-07T13:06:33;8.63;;;4.80;;
3253;SDS011;1639;42.804;23.342;2024-03-07T13:08:59;13.03;;;6.93;;
3253;SDS011;1639;42.804;23.342;2024-03-07T13:11:25;7.87;;;4.90;;
3253;SDS011;1639;42.804;23.342;2024-03-07T13:13:55;8.13;;;4.30;;
3253;SDS011;1639;42.804;23.342;2024-03-07T13:16:21;9.70;;;6.30;;
3253;SDS011;1639;42.804;23.342;2024-03-07T13:18:52;13.20;;;8.57;;
3253;SDS011;1639;42.804;23.342;2024-03-07T13:21:20;8.30;;;5.27;;
3253;SDS011;1639;42.804;23.342;2024-03-07T13:23:46;7.67;;;4.57;;
3253;SDS011;1639;42.804;23.342;2024-03-07T13:26:12;9.53;;;5.17;;
3253;SDS011;1639;42.804;23.342;2024-03-07T13:28:44;9.67;;;5.40;;
3253;SDS011;1639;42.804;23.342;2024-03-07T13:31:10;6.90;;;3.83;;
3253;SDS011;1639;42.804;23.342;2024-03-07T13:33:42;7.97;;;3.77;;
3253;SDS011;1639;42.804;23.342;2024-03-07T13:36:10;9.20;;;5.67;;
3253;SDS011;1639;42.804;23.342;2024-03-07T13:38:35;8.40;;;4.33;;
3253;SDS011;1639;42.804;23.342;2024-03-07T13:41:01;11.53;;;7.10;;
3253;SDS011;1639;42.804;23.342;2024-03-07T13:43:30;9.93;;;4.80;;
3253;SDS011;1639;42.804;23.342;2024-03-07T13:45:58;14.33;;;6.40;;
3253;SDS011;1639;42.804;23.342;2024-03-07T13:48:24;7.90;;;4.90;;
3253;SDS011;1639;42.804;23.342;2024-03-07T13:50:49;7.77;;;4.73;;
3253;SDS011;1639;42.804;23.342;2024-03-07T13:53:15;10.20;;;5.40;;
3253;SDS011;1639;42.804;23.342;2024-03-07T14:01:28;7.27;;;3.70;;
3253;SDS011;1639;42.804;23.342;2024-03-07T14:09:40;7.63;;;4.87;;
3253;SDS011;1639;42.804;23.342;2024-03-07T14:18:55;9.33;;;4.47;;
3253;SDS011;1639;42.804;23.342;2024-03-07T14:21:00;7.70;;;4.47;;
3253;SDS011;1639;42.804;23.342;2024-03-07T14:29:22;7.33;;;3.30;;
3253;SDS011;1639;42.804;23.342;2024-03-07T14:32:03;10.13;;;5.50;;
3253;SDS011;1639;42.804;23.342;2024-03-07T14:34:36;6.50;;;3.40;;
3253;SDS011;1639;42.804;23.342;2024-03-07T14:37:17;11.70;;;8.43;;
3253;SDS011;1639;42.804;23.342;2024-03-07T14:39:48;11.87;;;5.10;;
3253;SDS011;1639;42.804;23.342;2024-03-07T14:42:16;7.00;;;3.77;;
3253;SDS011;1639;42.804;23.342;2024-03-07T14:44:44;11.60;;;6.50;;
3253;SDS011;1639;42.804;23.342;2024-03-07T14:47:13;12.10;;;8.20;;
3253;SDS011;1639;42.804;23.342;2024-03-07T14:49:40;10.93;;;7.00;;
3253;SDS011;1639;42.804;23.342;2024-03-07T14:52:07;18.23;;;10.80;;
3253;SDS011;1639;42.804;23.342;2024-03-07T14:54:38;16.80;;;11.83;;
3253;SDS011;1639;42.804;23.342;2024-03-07T14:57:04;16.57;;;11.10;;
3253;SDS011;1639;42.804;23.342;2024-03-07T14:59:30;14.60;;;10.23;;
3253;SDS011;1639;42.804;23.342;2024-03-07T15:01:56;22.77;;;20.37;;
3253;SDS011;1639;42.804;23.342;2024-03-07T15:04:24;24.97;;;22.27;;
3253;SDS011;1639;42.804;23.342;2024-03-07T15:06:50;24.57;;;21.63;;
3253;SDS011;1639;42.804;23.342;2024-03-07T15:09:17;25.13;;;21.50;;
3253;SDS011;1639;42.804;23.342;2024-03-07T15:11:44;27.57;;;19.67;;
3253;SDS011;1639;42.804;23.342;2024-03-07T15:14:09;36.27;;;26.47;;
3253;SDS011;1639;42.804;23.342;2024-03-07T15:16:35;32.60;;;25.03;;
3253;SDS011;1639;42.804;23.342;2024-03-07T15:19:05;24.47;;;20.03;;
3253;SDS011;1639;42.804;23.342;2024-03-07T15:21:35;24.40;;;18.30;;
3253;SDS011;1639;42.804;23.342;2024-03-07T15:24:02;26.10;;;19.57;;
3253;SDS011;1639;42.804;23.342;2024-03-07T15:26:28;20.60;;;17.57;;
3253;SDS011;1639;42.804;23.342;2024-03-07T15:28:56;18.13;;;13.33;;
3253;SDS011;1639;42.804;23.342;2024-03-07T15:31:22;7.83;;;5.10;;
3253;SDS011;1639;42.804;23.342;2024-03-07T15:33:48;9.10;;;5.57;;
3253;SDS011;1639;42.804;23.342;2024-03-07T15:36:16;8.97;;;5.70;;
3253;SDS011;1639;42.804;23.342;2024-03-07T15:38:43;12.17;;;8.77;;
3253;SDS011;1639;42.804;23.342;2024-03-07T15:41:08;10.37;;;8.50;;